createdAt,value
2018-12-16T00:02:25.828Z,16.97
2018-12-16T00:06:30.673Z,15.10
2018-12-16T00:10:35.437Z,13.70
2018-12-16T00:14:40.286Z,16.80
2018-12-16T00:18:45.088Z,15.93
2018-12-16T00:22:49.982Z,15.83
2018-12-16T00:32:22.120Z,15.60
2018-12-16T00:36:27.039Z,15.87
2018-12-16T00:40:31.800Z,19.67
2018-12-16T00:44:36.746Z,20.40
2018-12-16T00:48:41.574Z,16.37
2018-12-16T00:52:46.455Z,17.67
2018-12-16T00:56:51.643Z,17.90
2018-12-16T01:00:56.452Z,15.80
2018-12-16T01:05:01.242Z,13.50
2018-12-16T01:09:45.381Z,16.57
2018-12-16T01:13:50.155Z,16.97
2018-12-16T01:17:55.059Z,15.50
2018-12-16T01:22:00.153Z,14.47
2018-12-16T01:26:05.037Z,14.27
2018-12-16T01:30:09.859Z,15.10
2018-12-16T01:34:14.680Z,16.47
2018-12-16T01:38:19.441Z,14.60
2018-12-16T01:42:24.258Z,18.00
2018-12-16T01:46:29.069Z,15.43
2018-12-16T01:50:33.915Z,16.60
2018-12-16T01:54:38.737Z,14.37
2018-12-16T01:58:43.572Z,14.67
2018-12-16T02:02:48.646Z,15.37
2018-12-16T02:06:53.672Z,14.87
2018-12-16T02:10:58.450Z,14.07
2018-12-16T02:15:03.395Z,16.80
2018-12-16T02:19:08.179Z,14.73
2018-12-16T02:23:13.022Z,13.47
2018-12-16T02:27:18.168Z,13.60
2018-12-16T02:31:22.942Z,14.93
2018-12-16T02:35:27.830Z,14.20
2018-12-16T02:39:32.659Z,14.23
2018-12-16T02:43:37.488Z,14.13
2018-12-16T02:47:42.354Z,11.83
2018-12-16T02:51:47.120Z,14.20
2018-12-16T02:55:52.021Z,14.43
2018-12-16T02:59:57.061Z,13.77
2018-12-16T03:04:02.053Z,14.67
2018-12-16T03:08:07.664Z,16.07
2018-12-16T03:12:12.475Z,16.30
2018-12-16T03:16:17.342Z,14.33
2018-12-16T03:20:22.273Z,13.60
2018-12-16T03:24:27.800Z,15.67
2018-12-16T03:28:32.600Z,16.33
2018-12-16T03:32:37.441Z,12.23
2018-12-16T03:36:42.358Z,13.23
2018-12-16T03:40:47.484Z,13.70
2018-12-16T03:44:52.287Z,14.60
2018-12-16T03:48:57.146Z,12.83
2018-12-16T03:53:01.988Z,12.00
2018-12-16T03:57:06.807Z,15.57
2018-12-16T04:01:19.007Z,12.77
2018-12-16T04:05:23.813Z,15.40
2018-12-16T04:09:28.627Z,11.77
2018-12-16T04:13:33.428Z,12.07
2018-12-16T04:21:49.451Z,15.33
2018-12-16T04:25:54.237Z,12.60
2018-12-16T04:29:59.048Z,13.57
2018-12-16T04:34:03.889Z,15.10
2018-12-16T04:38:08.750Z,12.67
2018-12-16T04:42:13.531Z,12.80
2018-12-16T04:46:18.437Z,13.00
2018-12-16T04:50:23.639Z,11.70
2018-12-16T04:54:28.556Z,13.30
2018-12-16T04:58:33.394Z,13.80
2018-12-16T05:02:38.153Z,12.20
2018-12-16T05:06:43.171Z,13.53
2018-12-16T05:10:47.962Z,14.23
2018-12-16T05:15:32.013Z,14.47
2018-12-16T05:19:36.813Z,15.77
2018-12-16T05:23:42.238Z,14.40
2018-12-16T05:27:48.705Z,14.83
2018-12-16T05:31:53.626Z,13.87
2018-12-16T05:35:58.656Z,15.30
2018-12-16T05:40:03.615Z,13.23
2018-12-16T05:44:08.578Z,12.97
2018-12-16T05:48:13.481Z,12.83
2018-12-16T05:52:18.762Z,12.97
2018-12-16T05:56:23.668Z,12.37
2018-12-16T06:00:28.932Z,13.00
2018-12-16T06:04:33.967Z,11.77
2018-12-16T06:08:38.983Z,12.47
2018-12-16T06:12:43.891Z,11.90
2018-12-16T06:16:48.944Z,11.10
2018-12-16T06:20:53.941Z,12.43
2018-12-16T06:24:59.507Z,12.60
2018-12-16T06:29:04.453Z,13.00
2018-12-16T06:33:09.459Z,15.90
2018-12-16T06:37:14.484Z,11.17
2018-12-16T06:41:19.477Z,12.80
2018-12-16T06:45:24.467Z,11.60
2018-12-16T06:49:29.540Z,10.73
2018-12-16T06:53:34.619Z,12.90
2018-12-16T06:57:39.614Z,9.60
2018-12-16T07:01:45.224Z,11.70
2018-12-16T07:05:50.228Z,12.37
2018-12-16T07:09:55.250Z,11.13
2018-12-16T07:14:00.291Z,10.97
2018-12-16T07:18:05.331Z,13.27
2018-12-16T07:22:10.318Z,12.53
2018-12-16T07:26:15.314Z,13.07
2018-12-16T07:30:20.342Z,13.07
2018-12-16T07:34:25.231Z,12.97
2018-12-16T07:38:30.372Z,12.90
2018-12-16T07:42:35.324Z,13.27
2018-12-16T07:46:40.258Z,14.00
2018-12-16T07:50:45.195Z,13.53
2018-12-16T07:54:50.301Z,13.33
2018-12-16T07:59:06.271Z,13.20
2018-12-16T08:03:11.212Z,14.63
2018-12-16T08:07:16.144Z,13.50
2018-12-16T08:11:21.124Z,10.07
2018-12-16T08:15:26.193Z,13.20
2018-12-16T08:19:31.203Z,13.20
2018-12-16T08:23:36.224Z,13.67
2018-12-16T08:27:41.240Z,13.73
2018-12-16T08:31:46.161Z,13.33
2018-12-16T08:35:51.190Z,13.73
2018-12-16T08:39:56.136Z,13.33
2018-12-16T08:44:01.111Z,15.13
2018-12-16T08:48:05.993Z,14.13
2018-12-16T08:52:10.953Z,14.13
2018-12-16T08:56:15.894Z,13.43
2018-12-16T09:00:20.946Z,15.33
2018-12-16T09:08:38.307Z,16.30
2018-12-16T09:12:43.418Z,16.20
2018-12-16T09:16:48.416Z,17.23
2018-12-16T09:20:53.433Z,17.33
2018-12-16T09:24:58.376Z,18.47
2018-12-16T09:29:03.343Z,16.40
2018-12-16T09:33:08.387Z,16.67
2018-12-16T09:37:13.356Z,16.90
2018-12-16T09:41:18.375Z,16.77
2018-12-16T09:45:23.215Z,16.93
2018-12-16T09:49:28.038Z,20.03
2018-12-16T09:53:32.902Z,16.13
2018-12-16T09:57:56.587Z,16.57
2018-12-16T10:02:01.385Z,15.57
2018-12-16T10:06:06.314Z,17.77
2018-12-16T10:10:12.349Z,14.63
2018-12-16T10:14:17.192Z,14.63
2018-12-16T10:18:22.041Z,14.27
2018-12-16T10:22:26.883Z,12.03
2018-12-16T10:26:32.170Z,13.17
2018-12-16T10:30:37.049Z,11.83
2018-12-16T10:34:41.983Z,12.83
2018-12-16T10:38:46.782Z,14.10
2018-12-16T10:42:51.636Z,13.13
2018-12-16T10:46:56.401Z,13.10
2018-12-16T10:51:01.343Z,13.03
2018-12-16T10:55:06.277Z,11.10
2018-12-16T10:59:11.153Z,11.03
2018-12-16T11:03:15.919Z,10.23
2018-12-16T11:07:20.746Z,11.53
2018-12-16T11:11:25.624Z,10.37
2018-12-16T11:15:30.468Z,11.60
2018-12-16T11:19:35.308Z,12.70
2018-12-16T11:23:40.174Z,11.40
2018-12-16T11:27:45.089Z,11.70
2018-12-16T11:31:49.906Z,12.33
2018-12-16T11:35:55.109Z,10.93
2018-12-16T11:39:59.938Z,12.80
2018-12-16T11:44:04.823Z,12.33
2018-12-16T12:26:36.031Z,15.83
2018-12-16T12:30:40.793Z,15.60
2018-12-16T12:34:45.634Z,13.87
2018-12-16T12:38:50.498Z,14.27
2018-12-16T12:42:55.439Z,17.60
2018-12-16T12:47:00.334Z,16.43
2018-12-16T12:51:05.225Z,16.73
2018-12-16T12:55:10.382Z,17.57
2018-12-16T12:59:15.222Z,16.03
2018-12-16T13:03:20.049Z,19.67
2018-12-16T13:07:43.892Z,19.40
2018-12-16T13:11:48.736Z,18.37
2018-12-16T13:15:53.576Z,16.40
2018-12-16T13:19:58.410Z,19.40
2018-12-16T13:24:03.377Z,17.83
2018-12-16T13:28:08.207Z,17.60
2018-12-16T13:32:13.020Z,21.43
2018-12-16T13:36:17.856Z,19.47
2018-12-16T13:40:22.696Z,19.67
2018-12-16T13:44:27.595Z,20.17
2018-12-16T13:48:32.564Z,23.53
2018-12-16T13:52:37.396Z,18.63
2018-12-16T13:56:42.384Z,21.87
2018-12-16T14:00:47.357Z,22.47
2018-12-16T14:04:52.470Z,21.37
2018-12-16T14:08:57.510Z,24.07
2018-12-16T14:13:02.560Z,22.87
2018-12-16T14:17:07.739Z,20.43
2018-12-16T14:21:12.713Z,21.17
2018-12-16T14:25:17.626Z,24.10
2018-12-16T14:29:22.656Z,21.23
2018-12-16T14:33:27.951Z,21.47
2018-12-16T14:37:32.897Z,20.77
2018-12-16T14:41:37.959Z,21.57
2018-12-16T14:45:42.921Z,20.37
2018-12-16T14:49:47.792Z,19.97
2018-12-16T14:53:52.771Z,21.00
2018-12-16T14:57:57.820Z,23.83
2018-12-16T15:02:02.744Z,21.13
2018-12-16T15:06:07.692Z,22.80
2018-12-16T15:10:13.140Z,22.80
2018-12-16T15:14:18.107Z,20.27
2018-12-16T15:18:23.045Z,20.37
2018-12-16T15:22:28.040Z,20.70
2018-12-16T15:26:33.062Z,21.23
2018-12-16T15:30:38.117Z,21.27
2018-12-16T15:34:43.075Z,22.13
2018-12-16T15:38:48.031Z,20.13
2018-12-16T15:42:53.018Z,20.03
2018-12-16T15:46:58.091Z,21.33
2018-12-16T15:51:03.017Z,21.70
2018-12-16T15:55:10.607Z,20.67
2018-12-16T15:59:15.562Z,21.93
2018-12-16T16:03:20.622Z,19.67
2018-12-16T16:07:25.543Z,23.43
2018-12-16T16:11:30.566Z,25.63
2018-12-16T16:15:35.580Z,22.03
2018-12-16T16:19:40.835Z,23.00
2018-12-16T16:23:45.958Z,22.63
2018-12-16T16:27:51.416Z,17.30
2018-12-16T16:31:56.351Z,22.47
2018-12-16T16:40:13.811Z,24.90
2018-12-16T16:44:18.860Z,22.73
2018-12-16T16:48:23.909Z,23.03
2018-12-16T16:52:28.899Z,20.77
2018-12-16T16:56:34.036Z,23.00
2018-12-16T17:00:39.130Z,21.80
2018-12-16T17:05:02.762Z,22.63
2018-12-16T17:09:09.448Z,22.20
2018-12-16T17:13:14.554Z,23.07
2018-12-16T17:17:19.639Z,24.87
2018-12-16T17:25:36.550Z,22.00
2018-12-16T17:29:41.559Z,23.40
2018-12-16T17:33:46.613Z,20.80
2018-12-16T17:37:51.620Z,22.77
2018-12-16T17:41:56.522Z,25.57
2018-12-16T17:46:01.655Z,25.13
2018-12-16T17:50:06.567Z,23.40
2018-12-16T17:54:11.526Z,24.93
2018-12-16T17:58:16.546Z,23.90
2018-12-16T18:02:21.605Z,23.37
2018-12-16T18:06:26.666Z,26.50
2018-12-16T18:10:31.780Z,26.80
2018-12-16T18:14:36.839Z,23.37
2018-12-16T18:18:41.800Z,21.10
2018-12-16T18:22:46.931Z,22.33
2018-12-16T18:26:51.956Z,27.57
2018-12-16T18:30:57.633Z,22.90
2018-12-16T18:35:02.824Z,23.50
2018-12-16T18:39:10.758Z,21.27
2018-12-16T18:43:15.722Z,24.13
2018-12-16T18:47:20.733Z,26.53
2018-12-16T18:51:25.740Z,24.60
2018-12-16T18:55:30.787Z,23.80
2018-12-16T18:59:35.786Z,25.47
2018-12-16T19:03:40.780Z,23.37
2018-12-16T19:07:46.677Z,23.20
2018-12-16T19:11:52.129Z,24.43
2018-12-16T19:15:57.224Z,26.43
2018-12-16T19:20:02.297Z,25.90
2018-12-16T19:24:07.294Z,28.83
2018-12-16T19:28:12.326Z,26.97
2018-12-16T19:32:17.314Z,28.97
2018-12-16T19:36:22.427Z,26.43
2018-12-16T19:40:27.447Z,25.83
2018-12-16T19:44:32.318Z,28.00
2018-12-16T19:48:37.355Z,25.20
2018-12-16T19:52:42.446Z,23.73
2018-12-16T19:56:47.992Z,31.17
2018-12-16T20:00:52.958Z,26.67
2018-12-16T20:05:16.490Z,28.50
2018-12-16T20:09:21.416Z,23.20
2018-12-16T20:13:26.399Z,25.80
2018-12-16T20:17:31.446Z,25.27
2018-12-16T20:21:36.388Z,25.33
2018-12-16T20:25:41.927Z,26.73
2018-12-16T20:29:46.984Z,27.93
2018-12-16T20:33:51.935Z,27.23
2018-12-16T20:37:56.869Z,29.23
2018-12-16T20:42:01.854Z,28.57
2018-12-16T20:46:06.856Z,25.70
2018-12-16T20:50:11.726Z,27.80
2018-12-16T20:54:16.693Z,25.60
2018-12-16T20:58:21.607Z,24.50
2018-12-16T21:02:26.543Z,26.47
2018-12-16T21:06:31.598Z,29.90
2018-12-16T21:10:36.602Z,22.63
2018-12-16T21:15:00.225Z,29.50
2018-12-16T21:19:05.175Z,27.07
2018-12-16T21:23:10.028Z,30.47
2018-12-16T21:27:15.002Z,26.00
2018-12-16T21:31:19.841Z,29.83
2018-12-16T21:35:24.791Z,29.77
2018-12-16T21:39:29.857Z,28.77
2018-12-16T21:43:34.962Z,29.43
2018-12-16T21:47:39.959Z,28.87
2018-12-16T21:51:44.870Z,28.83
2018-12-16T21:55:49.778Z,30.63
2018-12-16T21:59:54.708Z,29.37
2018-12-16T22:03:59.599Z,27.63
2018-12-16T22:08:04.746Z,28.77
2018-12-16T22:12:09.727Z,29.57
2018-12-16T22:16:14.693Z,27.57
2018-12-16T22:20:19.687Z,29.47
2018-12-16T22:24:24.638Z,31.30
2018-12-16T22:28:29.539Z,30.87
2018-12-16T22:32:34.568Z,29.63
2018-12-16T22:36:39.553Z,32.53
2018-12-16T22:40:44.577Z,28.83
2018-12-16T22:44:49.529Z,29.17
2018-12-16T22:48:54.484Z,28.97
2018-12-16T22:52:59.386Z,30.60
2018-12-16T22:57:04.363Z,30.97
2018-12-16T23:01:27.875Z,27.10
2018-12-16T23:05:32.792Z,28.17
2018-12-16T23:09:37.778Z,29.60
2018-12-16T23:13:42.753Z,30.77
2018-12-16T23:17:47.716Z,31.23
2018-12-16T23:21:52.616Z,29.37
2018-12-16T23:25:57.628Z,30.40
2018-12-16T23:30:02.551Z,29.83
2018-12-16T23:34:07.389Z,27.03
2018-12-16T23:38:12.337Z,32.83
2018-12-16T23:42:17.330Z,31.03
2018-12-16T23:46:22.164Z,28.23
2018-12-16T23:50:27.158Z,30.90
2018-12-16T23:54:32.061Z,30.50
2018-12-16T23:58:36.971Z,30.60
